Time;durP1;ratioP1;P1;durP2;ratioP2;P2;SDS_P1;SDS_P2;PMS_P1;PMS_P2;Temp;Humidity;BMP_temperature;BMP_pressure;BME280_temperature;BME280_humidity;BME280_pressure;Samples;Min_cycle;Max_cycle;Signal;HPM_P1;HPM_P2
2024/03/30 00:00:08;;;;;;;;;;;;;;;;;;1053488;28;19908;-74
2024/03/30 00:00:38;;;;;;;;;;;;;;;;;;1048091;28;19914;-74
2024/03/30 00:01:08;;;;;;;;;;;;;;;;;;1048268;28;19915;-75
2024/03/30 00:01:39;;;;;;;;;;;;;;;;;;1045353;28;19927;-74
2024/03/30 00:02:09;;;;;;;;;;;;;;;;;;1048743;28;19912;-74
2024/03/30 00:02:39;;;;;;;;;;;;;;;;;;1047972;28;20386;-75
2024/03/30 00:03:09;;;;;;;;;;;;;;;;;;1048721;28;19931;-74
2024/03/30 00:03:39;;;;;;;;;;;;;;;;;;1048464;28;19908;-76
2024/03/30 00:04:10;;;;;;;;;;;;;;;;;;1049075;28;19957;-74
2024/03/30 00:04:40;;;;;;;;;;;;;;;;;;1048766;28;19986;-74
2024/03/30 00:05:10;;;;;;;;;;;;;;;;;;1042702;28;19909;-74
2024/03/30 00:05:40;;;;;;;;;;;;;;;;;;1043383;28;19909;-74
2024/03/30 00:06:11;;;;;;;;;;;;;;;;;;1047112;28;19909;-74
2024/03/30 00:06:41;;;;;;;;;;;;;;;;;;1048849;28;19912;-74
2024/03/30 00:07:11;;;;;;;;;;;;;;;;;;1052238;28;19949;-74
2024/03/30 00:07:44;;;;;;;;;;;;;;;;;;1052662;28;19916;-74
2024/03/30 00:08:14;;;;;;;;;;;;;;;;;;1045468;28;19909;-74
2024/03/30 00:08:44;;;;;;;;;;;;;;;;;;1047384;28;19912;-74
2024/03/30 00:09:15;;;;;;;;;;;;;;;;;;1048735;28;19912;-74
2024/03/30 00:09:45;;;;;;;;;;;;;;;;;;1047852;28;19908;-74
2024/03/30 00:10:16;;;;;;;;;;;;;;;;;;1048829;28;19951;-74
2024/03/30 00:10:46;;;;;;;;;;;;;;;;;;1047751;28;19919;-74
2024/03/30 00:11:16;;;;;;;;;;;;;;;;;;1053230;28;19957;-74
2024/03/30 00:11:46;;;;;;;;;;;;;;;;;;1053500;28;19907;-74
2024/03/30 00:12:16;;;;;;;;;;;;;;;;;;1048673;28;19958;-74
2024/03/30 00:12:49;;;;;;;;;;;;;;;;;;1048977;28;19908;-74
2024/03/30 00:13:19;;;;;;;;;;;;;;;;;;1047857;28;20007;-75
2024/03/30 00:13:50;;;;;;;;;;;;;;;;;;1048644;28;19965;-74
2024/03/30 00:14:20;;;;;;;;;;;;;;;;;;1048228;28;19908;-74
2024/03/30 00:14:50;;;;;;;;;;;;;;;;;;1048571;28;19908;-74
2024/03/30 00:15:20;;;;;;;;;;;;;;;;;;1053161;28;19915;-74
2024/03/30 00:15:50;;;;;;;;;;;;;;;;;;1053381;28;19904;-75
2024/03/30 00:16:21;;;;;;;;;;;;;;;;;;1053174;28;19916;-74
2024/03/30 00:16:51;;;;;;;;;;;;;;;;;;1053054;28;19911;-74
2024/03/30 00:17:21;;;;;;;;;;;;;;;;;;1053416;28;20256;-74
2024/03/30 00:17:52;;;;;;;;;;;;;;;;;;1053465;28;19912;-74
2024/03/30 00:18:22;;;;;;;;;;;;;;;;;;1053395;28;20290;-74
2024/03/30 00:18:53;;;;;;;;;;;;;;;;;;1053213;28;19978;-74
2024/03/30 00:19:23;;;;;;;;;;;;;;;;;;1053307;28;19914;-74
2024/03/30 00:19:53;;;;;;;;;;;;;;;;;;1053562;28;19915;-74
2024/03/30 00:20:23;;;;;;;;;;;;;;;;;;1052938;28;19908;-74
2024/03/30 00:20:54;;;;;;;;;;;;;;;;;;1047544;28;19908;-74
2024/03/30 00:21:24;;;;;;;;;;;;;;;;;;1047870;28;19908;-74
2024/03/30 00:21:54;;;;;;;;;;;;;;;;;;1048820;28;19939;-75
2024/03/30 00:22:24;;;;;;;;;;;;;;;;;;1048545;28;19908;-74
2024/03/30 00:22:55;;;;;;;;;;;;;;;;;;1048953;28;20356;-74
2024/03/30 00:23:25;;;;;;;;;;;;;;;;;;1048542;28;20315;-74
2024/03/30 00:23:55;;;;;;;;;;;;;;;;;;1047743;28;20257;-74
2024/03/30 00:24:25;;;;;;;;;;;;;;;;;;1051552;28;19907;-74
2024/03/30 00:24:56;;;;;;;;;;;;;;;;;;1048793;28;19909;-74
2024/03/30 00:25:26;;;;;;;;;;;;;;;;;;1048791;28;19909;-74
2024/03/30 00:25:56;;;;;;;;;;;;;;;;;;1047810;28;19916;-74
2024/03/30 00:26:28;;;;;;;;;;;;;;;;;;1048492;28;19916;-74
2024/03/30 00:26:58;;;;;;;;;;;;;;;;;;1048864;28;20430;-74
2024/03/30 00:27:29;;;;;;;;;;;;;;;;;;1049197;28;19916;-74
2024/03/30 00:27:59;;;;;;;;;;;;;;;;;;1053583;28;19908;-74
2024/03/30 00:28:30;;;;;;;;;;;;;;;;;;1053035;28;19915;-74
2024/03/30 00:29:00;;;;;;;;;;;;;;;;;;1051114;28;19912;-74
2024/03/30 00:29:30;;;;;;;;;;;;;;;;;;1052901;28;19999;-74
2024/03/30 00:30:01;;;;;;;;;;;;;;;;;;1048831;28;19908;-74
2024/03/30 00:30:36;;;;;;;;;;;;;;;;;;1048011;28;19919;-74
2024/03/30 00:31:06;;;;;;;;;;;;;;;;;;1048924;28;20394;-74
2024/03/30 00:31:36;;;;;;;;;;;;;;;;;;1048552;28;20034;-74
2024/03/30 00:32:07;;;;;;;;;;;;;;;;;;1048048;28;19938;-74
2024/03/30 00:32:37;;;;;;;;;;;;;;;;;;1048284;28;19915;-74
2024/03/30 00:33:07;;;;;;;;;;;;;;;;;;1047683;28;19960;-74
2024/03/30 00:33:37;;;;;;;;;;;;;;;;;;1053316;28;19915;-74
2024/03/30 00:34:08;;;;;;;;;;;;;;;;;;1051924;28;19912;-74
2024/03/30 00:34:38;;;;;;;;;;;;;;;;;;1053056;28;20275;-74
2024/03/30 00:35:08;;;;;;;;;;;;;;;;;;1051067;28;20271;-73
2024/03/30 00:35:38;;;;;;;;;;;;;;;;;;1053347;28;20317;-74
2024/03/30 00:36:09;;;;;;;;;;;;;;;;;;1051475;28;19908;-74
2024/03/30 00:36:39;;;;;;;;;;;;;;;;;;1050689;28;19991;-74
2024/03/30 00:37:09;;;;;;;;;;;;;;;;;;1053292;28;19919;-74
2024/03/30 00:37:39;;;;;;;;;;;;;;;;;;1053344;28;19954;-74
2024/03/30 00:38:10;;;;;;;;;;;;;;;;;;1053462;28;19915;-74
2024/03/30 00:38:43;;;;;;;;;;;;;;;;;;1048495;28;20359;-74
2024/03/30 00:39:14;;;;;;;;;;;;;;;;;;1047332;28;19908;-74
2024/03/30 00:39:44;;;;;;;;;;;;;;;;;;1048770;28;19912;-74
2024/03/30 00:40:14;;;;;;;;;;;;;;;;;;1048744;28;19908;-74
2024/03/30 00:40:44;;;;;;;;;;;;;;;;;;1048797;28;19909;-74
2024/03/30 00:41:15;;;;;;;;;;;;;;;;;;1046377;28;19909;-74
2024/03/30 00:41:45;;;;;;;;;;;;;;;;;;1053309;28;19912;-74
2024/03/30 00:42:15;;;;;;;;;;;;;;;;;;1053188;28;19915;-74
2024/03/30 00:42:45;;;;;;;;;;;;;;;;;;1045245;28;19955;-74
2024/03/30 00:43:15;;;;;;;;;;;;;;;;;;1048357;28;19999;-74
2024/03/30 00:43:46;;;;;;;;;;;;;;;;;;1046730;28;19943;-73
2024/03/30 00:44:16;;;;;;;;;;;;;;;;;;1048676;28;19915;-74
2024/03/30 00:44:47;;;;;;;;;;;;;;;;;;1047342;28;20291;-74
2024/03/30 00:45:17;;;;;;;;;;;;;;;;;;1047477;28;20352;-74
2024/03/30 00:45:47;;;;;;;;;;;;;;;;;;1048712;28;19948;-74
2024/03/30 00:46:17;;;;;;;;;;;;;;;;;;1048799;28;19954;-74
2024/03/30 00:46:47;;;;;;;;;;;;;;;;;;1053049;28;19942;-74
2024/03/30 00:47:18;;;;;;;;;;;;;;;;;;1048596;28;19957;-74
2024/03/30 00:47:48;;;;;;;;;;;;;;;;;;1047801;28;19951;-74
2024/03/30 00:48:18;;;;;;;;;;;;;;;;;;1048559;28;19908;-74
2024/03/30 00:48:48;;;;;;;;;;;;;;;;;;1047418;28;19909;-74
2024/03/30 00:49:19;;;;;;;;;;;;;;;;;;1046530;28;19908;-74
2024/03/30 00:49:49;;;;;;;;;;;;;;;;;;1043204;28;19960;-74
2024/03/30 00:50:19;;;;;;;;;;;;;;;;;;1044511;28;20007;-74
2024/03/30 00:50:49;;;;;;;;;;;;;;;;;;1043922;28;20002;-74
2024/03/30 00:51:20;;;;;;;;;;;;;;;;;;1047145;28;19913;-74
2024/03/30 00:51:50;;;;;;;;;;;;;;;;;;1048778;28;19916;-74
2024/03/30 00:52:20;;;;;;;;;;;;;;;;;;1047945;28;19954;-74
2024/03/30 00:52:50;;;;;;;;;;;;;;;;;;1052167;28;19962;-74
2024/03/30 00:53:20;;;;;;;;;;;;;;;;;;1048387;28;19908;-74
2024/03/30 00:53:51;;;;;;;;;;;;;;;;;;1048682;28;20015;-74
2024/03/30 00:54:21;;;;;;;;;;;;;;;;;;1047729;28;19918;-74
2024/03/30 00:54:51;;;;;;;;;;;;;;;;;;1047815;28;19920;-74
2024/03/30 00:55:21;;;;;;;;;;;;;;;;;;1052367;28;19912;-74
2024/03/30 00:55:52;;;;;;;;;;;;;;;;;;1053365;28;19954;-74
2024/03/30 00:56:22;;;;;;;;;;;;;;;;;;1053131;28;19907;-74
2024/03/30 00:56:52;;;;;;;;;;;;;;;;;;1053023;28;19915;-74
2024/03/30 00:57:22;;;;;;;;;;;;;;;;;;1053004;28;19907;-74
2024/03/30 00:57:52;;;;;;;;;;;;;;;;;;1050710;28;19912;-74
2024/03/30 00:58:23;;;;;;;;;;;;;;;;;;1052252;28;20074;-74
2024/03/30 00:58:53;;;;;;;;;;;;;;;;;;1053146;28;19907;-74
2024/03/30 00:59:23;;;;;;;;;;;;;;;;;;1052977;28;20295;-74
2024/03/30 00:59:53;;;;;;;;;;;;;;;;;;1053394;28;20353;-74
2024/03/30 01:00:24;;;;;;;;;;;;;;;;;;1052542;28;19943;-74
2024/03/30 01:00:54;;;;;;;;;;;;;;;;;;1048430;28;19944;-74
2024/03/30 01:01:24;;;;;;;;;;;;;;;;;;1048427;28;19961;-74
2024/03/30 01:01:54;;;;;;;;;;;;;;;;;;1048738;28;19916;-74
2024/03/30 01:02:25;;;;;;;;;;;;;;;;;;1047242;28;19909;-74
2024/03/30 01:02:55;;;;;;;;;;;;;;;;;;1047241;28;19950;-74
2024/03/30 01:03:25;;;;;;;;;;;;;;;;;;1047305;28;19912;-74
2024/03/30 01:03:55;;;;;;;;;;;;;;;;;;1043200;28;19915;-74
2024/03/30 01:04:25;;;;;;;;;;;;;;;;;;1043075;28;19952;-74
2024/03/30 01:04:56;;;;;;;;;;;;;;;;;;1048391;28;20019;-74
2024/03/30 01:05:26;;;;;;;;;;;;;;;;;;1048529;28;19934;-74
2024/03/30 01:05:56;;;;;;;;;;;;;;;;;;1047332;28;19959;-74
2024/03/30 01:06:26;;;;;;;;;;;;;;;;;;1051878;28;19913;-74
2024/03/30 01:06:58;;;;;;;;;;;;;;;;;;1053122;28;19914;-74
2024/03/30 01:07:28;;;;;;;;;;;;;;;;;;1053157;28;20386;-74
2024/03/30 01:07:59;;;;;;;;;;;;;;;;;;1053154;28;19915;-74
2024/03/30 01:08:29;;;;;;;;;;;;;;;;;;1048138;28;19908;-74
2024/03/30 01:08:59;;;;;;;;;;;;;;;;;;1047033;28;19908;-74
2024/03/30 01:09:29;;;;;;;;;;;;;;;;;;1047677;28;19912;-74
2024/03/30 01:10:00;;;;;;;;;;;;;;;;;;1046536;28;19956;-74
2024/03/30 01:10:30;;;;;;;;;;;;;;;;;;1051203;28;19939;-74
2024/03/30 01:11:00;;;;;;;;;;;;;;;;;;1049170;28;19923;-74
2024/03/30 01:11:30;;;;;;;;;;;;;;;;;;1049455;28;19913;-74
2024/03/30 01:12:01;;;;;;;;;;;;;;;;;;1051644;28;20003;-74
2024/03/30 01:12:31;;;;;;;;;;;;;;;;;;1046252;28;20448;-74
2024/03/30 01:13:01;;;;;;;;;;;;;;;;;;1048338;28;20085;-74
2024/03/30 01:13:32;;;;;;;;;;;;;;;;;;1048288;28;20003;-74
2024/03/30 01:14:02;;;;;;;;;;;;;;;;;;1047719;28;20007;-74
2024/03/30 01:14:35;;;;;;;;;;;;;;;;;;1040379;28;19916;-74
2024/03/30 01:15:05;;;;;;;;;;;;;;;;;;1043138;28;21190;-74
2024/03/30 01:15:36;;;;;;;;;;;;;;;;;;1042610;28;20412;-74
2024/03/30 01:16:06;;;;;;;;;;;;;;;;;;1047016;28;19908;-74
2024/03/30 01:16:36;;;;;;;;;;;;;;;;;;1049869;28;20272;-74
2024/03/30 01:17:06;;;;;;;;;;;;;;;;;;1051715;28;20271;-74
2024/03/30 01:17:37;;;;;;;;;;;;;;;;;;1052689;28;20275;-74
2024/03/30 01:18:07;;;;;;;;;;;;;;;;;;1045955;28;20373;-74
2024/03/30 01:18:38;;;;;;;;;;;;;;;;;;1047716;28;19943;-74
2024/03/30 01:19:08;;;;;;;;;;;;;;;;;;1043856;28;19916;-74
2024/03/30 01:19:38;;;;;;;;;;;;;;;;;;1046415;28;19915;-74
2024/03/30 01:20:08;;;;;;;;;;;;;;;;;;1050247;28;19923;-74
2024/03/30 01:20:39;;;;;;;;;;;;;;;;;;1051142;28;20006;-74
2024/03/30 01:21:09;;;;;;;;;;;;;;;;;;1051193;28;19934;-74
2024/03/30 01:21:39;;;;;;;;;;;;;;;;;;1050687;28;19912;-74
2024/03/30 01:22:09;;;;;;;;;;;;;;;;;;1046334;28;20011;-74
2024/03/30 01:22:39;;;;;;;;;;;;;;;;;;1048178;28;19908;-74
2024/03/30 01:23:10;;;;;;;;;;;;;;;;;;1048369;28;19970;-74
2024/03/30 01:23:40;;;;;;;;;;;;;;;;;;1046976;28;19914;-74
2024/03/30 01:24:10;;;;;;;;;;;;;;;;;;1052208;28;20389;-74
2024/03/30 01:24:40;;;;;;;;;;;;;;;;;;1050083;28;20363;-74
2024/03/30 01:25:12;;;;;;;;;;;;;;;;;;1046628;28;19985;-74
2024/03/30 01:25:42;;;;;;;;;;;;;;;;;;1047034;28;20334;-74
2024/03/30 01:26:13;;;;;;;;;;;;;;;;;;1046839;28;19912;-74
2024/03/30 01:26:43;;;;;;;;;;;;;;;;;;1047090;28;19928;-74
2024/03/30 01:27:13;;;;;;;;;;;;;;;;;;1046634;28;20057;-74
2024/03/30 01:27:43;;;;;;;;;;;;;;;;;;1052825;28;19912;-74
2024/03/30 01:28:14;;;;;;;;;;;;;;;;;;1052592;28;19911;-74
2024/03/30 01:28:44;;;;;;;;;;;;;;;;;;1052434;28;19908;-74
2024/03/30 01:29:14;;;;;;;;;;;;;;;;;;1051849;28;20418;-74
2024/03/30 01:29:45;;;;;;;;;;;;;;;;;;1052927;28;20386;-74
2024/03/30 01:30:15;;;;;;;;;;;;;;;;;;1049781;28;20369;-74
2024/03/30 01:30:46;;;;;;;;;;;;;;;;;;1045002;28;19912;-74
2024/03/30 01:31:16;;;;;;;;;;;;;;;;;;1045325;28;19931;-74
2024/03/30 01:31:46;;;;;;;;;;;;;;;;;;1045707;28;19909;-74
2024/03/30 01:32:16;;;;;;;;;;;;;;;;;;1044687;28;20328;-74
2024/03/30 01:32:46;;;;;;;;;;;;;;;;;;1045495;28;19947;-74
2024/03/30 01:33:17;;;;;;;;;;;;;;;;;;1049617;28;19912;-74
2024/03/30 01:33:47;;;;;;;;;;;;;;;;;;1046302;28;19912;-74
2024/03/30 01:34:17;;;;;;;;;;;;;;;;;;1045861;28;19962;-74
2024/03/30 01:34:47;;;;;;;;;;;;;;;;;;1045324;28;20003;-73
2024/03/30 01:35:18;;;;;;;;;;;;;;;;;;1047160;28;19914;-74
2024/03/30 01:35:48;;;;;;;;;;;;;;;;;;1046746;28;19922;-73
2024/03/30 01:36:18;;;;;;;;;;;;;;;;;;1046844;28;19909;-73
2024/03/30 01:36:48;;;;;;;;;;;;;;;;;;1046352;28;20303;-73
2024/03/30 01:37:19;;;;;;;;;;;;;;;;;;1045595;28;20352;-73
2024/03/30 01:37:49;;;;;;;;;;;;;;;;;;1044734;28;19916;-73
2024/03/30 01:38:20;;;;;;;;;;;;;;;;;;1045780;28;20378;-73
2024/03/30 01:38:50;;;;;;;;;;;;;;;;;;1045381;28;19913;-73
2024/03/30 01:39:20;;;;;;;;;;;;;;;;;;1043210;28;20457;-73
2024/03/30 01:39:50;;;;;;;;;;;;;;;;;;1042874;28;20414;-73
2024/03/30 01:40:21;;;;;;;;;;;;;;;;;;1047220;28;20399;-74
2024/03/30 01:40:51;;;;;;;;;;;;;;;;;;1043243;28;20380;-73
2024/03/30 01:41:21;;;;;;;;;;;;;;;;;;1048235;28;19912;-74
2024/03/30 01:41:52;;;;;;;;;;;;;;;;;;1046883;28;19920;-73
2024/03/30 01:42:22;;;;;;;;;;;;;;;;;;1042563;28;19908;-73
2024/03/30 01:42:52;;;;;;;;;;;;;;;;;;1045999;28;19916;-74
2024/03/30 01:43:22;;;;;;;;;;;;;;;;;;1047292;28;19908;-73
2024/03/30 01:43:53;;;;;;;;;;;;;;;;;;1042520;28;19917;-74
2024/03/30 01:44:23;;;;;;;;;;;;;;;;;;1045518;28;19962;-73
2024/03/30 01:44:53;;;;;;;;;;;;;;;;;;1045843;28;19948;-73
2024/03/30 01:45:23;;;;;;;;;;;;;;;;;;1047212;28;19908;-74
2024/03/30 01:45:53;;;;;;;;;;;;;;;;;;1042519;28;19909;-73
2024/03/30 01:46:26;;;;;;;;;;;;;;;;;;1044057;28;20416;-74
2024/03/30 01:46:56;;;;;;;;;;;;;;;;;;1043426;28;20438;-74
2024/03/30 01:47:26;;;;;;;;;;;;;;;;;;1046776;28;19912;-74
2024/03/30 01:47:56;;;;;;;;;;;;;;;;;;1049914;28;20439;-74
2024/03/30 01:48:27;;;;;;;;;;;;;;;;;;1047138;28;20035;-74
2024/03/30 01:48:57;;;;;;;;;;;;;;;;;;1048315;28;20333;-74
2024/03/30 01:49:27;;;;;;;;;;;;;;;;;;1048180;28;20292;-74
2024/03/30 01:49:58;;;;;;;;;;;;;;;;;;1045705;28;20327;-74
2024/03/30 01:50:28;;;;;;;;;;;;;;;;;;1047921;28;20410;-74
2024/03/30 01:50:58;;;;;;;;;;;;;;;;;;1052675;28;19907;-74
2024/03/30 01:51:29;;;;;;;;;;;;;;;;;;1044842;28;19962;-74
2024/03/30 01:51:59;;;;;;;;;;;;;;;;;;1046169;28;19970;-74
2024/03/30 01:52:29;;;;;;;;;;;;;;;;;;1043592;28;19912;-73
2024/03/30 01:52:59;;;;;;;;;;;;;;;;;;1044949;28;20320;-74
2024/03/30 01:53:29;;;;;;;;;;;;;;;;;;1046504;28;20329;-73
2024/03/30 01:54:00;;;;;;;;;;;;;;;;;;1045682;28;20684;-73
2024/03/30 01:54:30;;;;;;;;;;;;;;;;;;1048664;28;20429;-73
2024/03/30 01:55:02;;;;;;;;;;;;;;;;;;1050468;28;20314;-73
2024/03/30 01:55:32;;;;;;;;;;;;;;;;;;1050401;28;19908;-73
2024/03/30 01:56:03;;;;;;;;;;;;;;;;;;1046707;28;20276;-73
2024/03/30 01:56:33;;;;;;;;;;;;;;;;;;1043111;28;20406;-73
2024/03/30 01:57:03;;;;;;;;;;;;;;;;;;1043991;28;19908;-74
2024/03/30 01:57:33;;;;;;;;;;;;;;;;;;1046054;28;19916;-73
2024/03/30 01:58:03;;;;;;;;;;;;;;;;;;1040903;28;19919;-74
2024/03/30 01:58:34;;;;;;;;;;;;;;;;;;1042954;28;19908;-74
2024/03/30 01:59:04;;;;;;;;;;;;;;;;;;1047612;28;19962;-73
2024/03/30 01:59:34;;;;;;;;;;;;;;;;;;1045256;28;19912;-73
2024/03/30 02:00:07;;;;;;;;;;;;;;;;;;1048804;28;19922;-74
2024/03/30 02:00:37;;;;;;;;;;;;;;;;;;1047807;28;19915;-73
2024/03/30 02:01:07;;;;;;;;;;;;;;;;;;1048388;28;19947;-73
2024/03/30 02:01:44;;;;;;;;;;;;;;;;;;1046522;28;19999;-73
2024/03/30 02:02:14;;;;;;;;;;;;;;;;;;1045165;28;19916;-74
2024/03/30 02:02:44;;;;;;;;;;;;;;;;;;1049732;28;19909;-74
2024/03/30 02:03:14;;;;;;;;;;;;;;;;;;1051419;28;20355;-75
2024/03/30 02:03:45;;;;;;;;;;;;;;;;;;1046068;28;20372;-73
2024/03/30 02:04:15;;;;;;;;;;;;;;;;;;1047646;28;20417;-74
2024/03/30 02:04:45;;;;;;;;;;;;;;;;;;1046092;28;20280;-74
2024/03/30 02:05:15;;;;;;;;;;;;;;;;;;1047373;28;20275;-74
2024/03/30 02:05:45;;;;;;;;;;;;;;;;;;1051751;28;19963;-73
2024/03/30 02:06:16;;;;;;;;;;;;;;;;;;1049477;28;19941;-73
2024/03/30 02:06:46;;;;;;;;;;;;;;;;;;1048960;28;19913;-74
2024/03/30 02:07:16;;;;;;;;;;;;;;;;;;1044188;28;19963;-74
2024/03/30 02:07:47;;;;;;;;;;;;;;;;;;1045346;28;20743;-73
2024/03/30 02:08:17;;;;;;;;;;;;;;;;;;1045039;28;19913;-73
2024/03/30 02:08:48;;;;;;;;;;;;;;;;;;1047065;28;19913;-73
2024/03/30 02:09:18;;;;;;;;;;;;;;;;;;1043740;28;20429;-74
2024/03/30 02:09:49;;;;;;;;;;;;;;;;;;1045763;28;19931;-73
2024/03/30 02:10:19;;;;;;;;;;;;;;;;;;1047319;28;19935;-74
2024/03/30 02:10:50;;;;;;;;;;;;;;;;;;1047629;28;20411;-74
2024/03/30 02:11:20;;;;;;;;;;;;;;;;;;1044879;28;19919;-73
2024/03/30 02:11:50;;;;;;;;;;;;;;;;;;1045953;28;19908;-74
2024/03/30 02:12:20;;;;;;;;;;;;;;;;;;1045127;28;19909;-73
2024/03/30 02:12:50;;;;;;;;;;;;;;;;;;1047195;28;19920;-74
2024/03/30 02:13:21;;;;;;;;;;;;;;;;;;1048266;28;19908;-73
2024/03/30 02:13:51;;;;;;;;;;;;;;;;;;1047541;28;19935;-73
2024/03/30 02:14:21;;;;;;;;;;;;;;;;;;1048185;28;19916;-74
2024/03/30 02:14:51;;;;;;;;;;;;;;;;;;1048383;28;19959;-73
2024/03/30 02:15:21;;;;;;;;;;;;;;;;;;1047236;28;19946;-74
2024/03/30 02:15:52;;;;;;;;;;;;;;;;;;1046319;28;19905;-73
2024/03/30 02:16:24;;;;;;;;;;;;;;;;;;1044369;28;20404;-73
2024/03/30 02:16:55;;;;;;;;;;;;;;;;;;1041686;28;21209;-73
2024/03/30 02:17:25;;;;;;;;;;;;;;;;;;1041258;28;20315;-74
2024/03/30 02:17:55;;;;;;;;;;;;;;;;;;1040503;28;20423;-74
2024/03/30 02:18:25;;;;;;;;;;;;;;;;;;1041539;28;20407;-74
2024/03/30 02:18:55;;;;;;;;;;;;;;;;;;1050554;28;20600;-74
2024/03/30 02:19:26;;;;;;;;;;;;;;;;;;1051011;28;20256;-74
2024/03/30 02:19:57;;;;;;;;;;;;;;;;;;1053028;28;20390;-74
2024/03/30 02:20:27;;;;;;;;;;;;;;;;;;1052318;28;19908;-73
2024/03/30 02:20:57;;;;;;;;;;;;;;;;;;1050156;28;20019;-73
2024/03/30 02:21:28;;;;;;;;;;;;;;;;;;1044647;28;19916;-73
2024/03/30 02:21:58;;;;;;;;;;;;;;;;;;1046705;28;19909;-75
2024/03/30 02:22:28;;;;;;;;;;;;;;;;;;1047254;28;19942;-74
2024/03/30 02:22:58;;;;;;;;;;;;;;;;;;1048349;28;19914;-74
2024/03/30 02:23:29;;;;;;;;;;;;;;;;;;1047944;28;20392;-74
2024/03/30 02:23:59;;;;;;;;;;;;;;;;;;1051493;28;20394;-75
2024/03/30 02:24:29;;;;;;;;;;;;;;;;;;1049045;28;19916;-73
2024/03/30 02:24:59;;;;;;;;;;;;;;;;;;1051520;28;20335;-73
2024/03/30 02:25:30;;;;;;;;;;;;;;;;;;1052707;28;20395;-73
2024/03/30 02:26:00;;;;;;;;;;;;;;;;;;1052484;28;20375;-74
2024/03/30 02:26:30;;;;;;;;;;;;;;;;;;1050777;28;20336;-74
2024/03/30 02:27:00;;;;;;;;;;;;;;;;;;1050245;28;20412;-75
2024/03/30 02:27:30;;;;;;;;;;;;;;;;;;1050853;28;20389;-74
2024/03/30 02:28:01;;;;;;;;;;;;;;;;;;1046387;28;20324;-73
2024/03/30 02:28:31;;;;;;;;;;;;;;;;;;1046054;28;19917;-74
2024/03/30 02:29:01;;;;;;;;;;;;;;;;;;1049008;28;20467;-74
2024/03/30 02:29:31;;;;;;;;;;;;;;;;;;1044419;28;19923;-74
2024/03/30 02:30:02;;;;;;;;;;;;;;;;;;1046543;28;19917;-75
2024/03/30 02:30:32;;;;;;;;;;;;;;;;;;1046580;28;19961;-73
2024/03/30 02:31:04;;;;;;;;;;;;;;;;;;1046514;28;19959;-74
2024/03/30 02:31:34;;;;;;;;;;;;;;;;;;1046819;28;20305;-73
2024/03/30 02:32:04;;;;;;;;;;;;;;;;;;1048463;28;19908;-73
2024/03/30 02:32:34;;;;;;;;;;;;;;;;;;1045718;28;19913;-74
2024/03/30 02:33:05;;;;;;;;;;;;;;;;;;1045878;28;19909;-73
2024/03/30 02:33:35;;;;;;;;;;;;;;;;;;1050808;28;20655;-74
2024/03/30 02:34:05;;;;;;;;;;;;;;;;;;1045686;28;20368;-73
2024/03/30 02:34:35;;;;;;;;;;;;;;;;;;1043548;28;19935;-74
2024/03/30 02:35:05;;;;;;;;;;;;;;;;;;1044654;28;19913;-75
2024/03/30 02:35:36;;;;;;;;;;;;;;;;;;1041681;28;19923;-75
2024/03/30 02:36:06;;;;;;;;;;;;;;;;;;1050176;28;19916;-73
2024/03/30 02:36:36;;;;;;;;;;;;;;;;;;1048312;28;19919;-74
2024/03/30 02:37:06;;;;;;;;;;;;;;;;;;1045085;28;19912;-74
2024/03/30 02:37:37;;;;;;;;;;;;;;;;;;1043808;28;20353;-74
2024/03/30 02:38:07;;;;;;;;;;;;;;;;;;1046710;28;20419;-73
2024/03/30 02:38:37;;;;;;;;;;;;;;;;;;1045641;28;20376;-73
2024/03/30 02:39:07;;;;;;;;;;;;;;;;;;1052363;28;20339;-73
2024/03/30 02:39:38;;;;;;;;;;;;;;;;;;1050875;28;19970;-74
2024/03/30 02:40:08;;;;;;;;;;;;;;;;;;1048190;28;19915;-74
2024/03/30 02:40:38;;;;;;;;;;;;;;;;;;1044485;28;19916;-74
2024/03/30 02:41:08;;;;;;;;;;;;;;;;;;1045105;28;20067;-74
2024/03/30 02:41:39;;;;;;;;;;;;;;;;;;1045909;28;20007;-73
2024/03/30 02:42:10;;;;;;;;;;;;;;;;;;1051729;28;19911;-73
2024/03/30 02:42:40;;;;;;;;;;;;;;;;;;1052131;28;20389;-73
2024/03/30 02:43:10;;;;;;;;;;;;;;;;;;1052703;28;19969;-73
2024/03/30 02:43:41;;;;;;;;;;;;;;;;;;1052362;28;19958;-73
2024/03/30 02:44:11;;;;;;;;;;;;;;;;;;1051716;28;19916;-74
2024/03/30 02:44:41;;;;;;;;;;;;;;;;;;1049137;28;19912;-74
2024/03/30 02:45:11;;;;;;;;;;;;;;;;;;1050222;28;20006;-73
2024/03/30 02:45:41;;;;;;;;;;;;;;;;;;1044038;28;19917;-73
2024/03/30 02:46:12;;;;;;;;;;;;;;;;;;1043357;28;19916;-74
2024/03/30 02:46:43;;;;;;;;;;;;;;;;;;1042366;28;19909;-73
2024/03/30 02:47:14;;;;;;;;;;;;;;;;;;1044400;28;19912;-75
2024/03/30 02:47:44;;;;;;;;;;;;;;;;;;1044533;28;20284;-75
2024/03/30 02:48:14;;;;;;;;;;;;;;;;;;1045653;28;19958;-74
2024/03/30 02:48:45;;;;;;;;;;;;;;;;;;1046033;28;19919;-74
2024/03/30 02:49:15;;;;;;;;;;;;;;;;;;1045911;28;19935;-74
2024/03/30 02:49:45;;;;;;;;;;;;;;;;;;1047652;28;19919;-73
2024/03/30 02:50:15;;;;;;;;;;;;;;;;;;1044861;28;19916;-73
2024/03/30 02:50:45;;;;;;;;;;;;;;;;;;1047561;28;19916;-74
2024/03/30 02:51:16;;;;;;;;;;;;;;;;;;1040276;28;20327;-73
2024/03/30 02:51:46;;;;;;;;;;;;;;;;;;1044875;28;19972;-73
2024/03/30 02:52:16;;;;;;;;;;;;;;;;;;1043793;28;19909;-73
2024/03/30 02:52:47;;;;;;;;;;;;;;;;;;1046548;28;19912;-73
2024/03/30 02:53:17;;;;;;;;;;;;;;;;;;1049402;28;19940;-74
2024/03/30 02:53:47;;;;;;;;;;;;;;;;;;1047255;28;19916;-73
2024/03/30 02:54:17;;;;;;;;;;;;;;;;;;1047198;28;19908;-73
2024/03/30 02:54:48;;;;;;;;;;;;;;;;;;1048009;28;19943;-75
2024/03/30 02:55:18;;;;;;;;;;;;;;;;;;1048002;28;19908;-74
2024/03/30 02:55:48;;;;;;;;;;;;;;;;;;1046083;28;19912;-73
2024/03/30 02:56:21;;;;;;;;;;;;;;;;;;1047292;28;19918;-73
2024/03/30 02:56:51;;;;;;;;;;;;;;;;;;1043199;28;20042;-74
2024/03/30 02:57:21;;;;;;;;;;;;;;;;;;1044365;28;19918;-75
2024/03/30 02:57:52;;;;;;;;;;;;;;;;;;1043894;28;19912;-72
2024/03/30 02:58:22;;;;;;;;;;;;;;;;;;1043795;28;19916;-72
2024/03/30 02:58:52;;;;;;;;;;;;;;;;;;1050114;28;19912;-75
2024/03/30 02:59:22;;;;;;;;;;;;;;;;;;1050247;28;19913;-73
2024/03/30 02:59:53;;;;;;;;;;;;;;;;;;1048641;28;19939;-75
2024/03/30 03:00:23;;;;;;;;;;;;;;;;;;1044273;28;19974;-72
2024/03/30 03:00:53;;;;;;;;;;;;;;;;;;1045259;28;19908;-75
2024/03/30 03:01:23;;;;;;;;;;;;;;;;;;1042624;28;19920;-74
2024/03/30 03:01:54;;;;;;;;;;;;;;;;;;1042229;28;19995;-74
2024/03/30 03:02:25;;;;;;;;;;;;;;;;;;1042756;28;19913;-75
2024/03/30 03:02:55;;;;;;;;;;;;;;;;;;1038389;28;20408;-74
2024/03/30 03:03:25;;;;;;;;;;;;;;;;;;1038699;28;20039;-74
2024/03/30 03:03:56;;;;;;;;;;;;;;;;;;1037511;28;20326;-74
2024/03/30 03:04:26;;;;;;;;;;;;;;;;;;1041417;28;19914;-74
2024/03/30 03:04:56;;;;;;;;;;;;;;;;;;1043418;28;20039;-74
2024/03/30 03:05:26;;;;;;;;;;;;;;;;;;1047120;28;20000;-76
2024/03/30 03:05:57;;;;;;;;;;;;;;;;;;1047736;28;19912;-74
2024/03/30 03:06:27;;;;;;;;;;;;;;;;;;1044766;28;20057;-74
2024/03/30 03:06:57;;;;;;;;;;;;;;;;;;1048835;28;20945;-73
2024/03/30 03:07:27;;;;;;;;;;;;;;;;;;1047690;28;20650;-73
2024/03/30 03:07:58;;;;;;;;;;;;;;;;;;1049196;28;20300;-74
2024/03/30 03:08:28;;;;;;;;;;;;;;;;;;1045836;28;20366;-75
2024/03/30 03:08:58;;;;;;;;;;;;;;;;;;1044029;28;19912;-75
2024/03/30 03:09:28;;;;;;;;;;;;;;;;;;1044592;28;20622;-74
2024/03/30 03:09:59;;;;;;;;;;;;;;;;;;1043581;28;19915;-75
2024/03/30 03:10:29;;;;;;;;;;;;;;;;;;1049553;28;19958;-74
2024/03/30 03:10:59;;;;;;;;;;;;;;;;;;1048988;28;19908;-73
2024/03/30 03:11:29;;;;;;;;;;;;;;;;;;1039732;28;19912;-74
2024/03/30 03:12:00;;;;;;;;;;;;;;;;;;1043908;28;19939;-72
2024/03/30 03:12:33;;;;;;;;;;;;;;;;;;1042355;28;20011;-74
2024/03/30 03:13:03;;;;;;;;;;;;;;;;;;1040799;28;19967;-74
2024/03/30 03:13:33;;;;;;;;;;;;;;;;;;1039967;28;19974;-74
2024/03/30 03:14:03;;;;;;;;;;;;;;;;;;1043182;28;19916;-74
2024/03/30 03:14:35;;;;;;;;;;;;;;;;;;1040379;28;19951;-73
2024/03/30 03:15:06;;;;;;;;;;;;;;;;;;1038515;28;19912;-73
2024/03/30 03:15:36;;;;;;;;;;;;;;;;;;1044180;28;20355;-74
2024/03/30 03:16:13;;;;;;;;;;;;;;;;;;1044954;28;20366;-74
2024/03/30 03:16:43;;;;;;;;;;;;;;;;;;1045838;28;19916;-74
2024/03/30 03:17:13;;;;;;;;;;;;;;;;;;1046939;28;19935;-75
2024/03/30 03:17:43;;;;;;;;;;;;;;;;;;1047926;28;19922;-73
2024/03/30 03:18:14;;;;;;;;;;;;;;;;;;1044305;28;19915;-73
2024/03/30 03:18:44;;;;;;;;;;;;;;;;;;1040295;28;19909;-73
2024/03/30 03:19:14;;;;;;;;;;;;;;;;;;1042178;28;20403;-72
2024/03/30 03:19:44;;;;;;;;;;;;;;;;;;1041963;28;19916;-74
2024/03/30 03:20:15;;;;;;;;;;;;;;;;;;1044626;28;19963;-73
2024/03/30 03:20:45;;;;;;;;;;;;;;;;;;1051411;28;19957;-73
2024/03/30 03:21:15;;;;;;;;;;;;;;;;;;1049302;28;19916;-73
2024/03/30 03:21:45;;;;;;;;;;;;;;;;;;1051425;28;19915;-73
2024/03/30 03:22:15;;;;;;;;;;;;;;;;;;1052394;28;19919;-73
2024/03/30 03:22:46;;;;;;;;;;;;;;;;;;1051454;28;20452;-74
2024/03/30 03:23:16;;;;;;;;;;;;;;;;;;1044257;28;19966;-74
2024/03/30 03:23:46;;;;;;;;;;;;;;;;;;1041848;28;19909;-74
2024/03/30 03:24:16;;;;;;;;;;;;;;;;;;1040168;28;19924;-74
2024/03/30 03:24:47;;;;;;;;;;;;;;;;;;1041088;28;19917;-74
2024/03/30 03:25:17;;;;;;;;;;;;;;;;;;1044594;28;19912;-75
2024/03/30 03:25:48;;;;;;;;;;;;;;;;;;1050173;28;20378;-76
2024/03/30 03:26:19;;;;;;;;;;;;;;;;;;1046931;28;19974;-75
2024/03/30 03:26:49;;;;;;;;;;;;;;;;;;1044070;28;20068;-75
2024/03/30 03:27:19;;;;;;;;;;;;;;;;;;1044521;28;20330;-74